Highworth, United Kingdom
Current Conditions -  °F | °C
As of 10:08 AM on Monday 22 Dec 2014 (Local Time) from EGVA Reporting Station
Overcast Overcast  
Wind Chill: 54°   Ceiling: 1500
Heat Index: 54°   Visibility: 6mi
Dew Point: 48°   Wind: 25mph
Humidity: 82%   Direction: 250°WSW
Pressure: 30.05"   Gusts: 38mph
Location:  51.63°N, 1.71°W
Report Text: EGVA 221008Z AUTO 25022G33KT 9999 OVC015 12/09 A3005 RMK AO2
Loading
Personal Weather Stations






























Interactive Weather Map New forecast layout! Learn more

10-Day Weather Forecast

Advertisements
Track Severe Weather on mobile